Time;durP1;ratioP1;P1;durP2;ratioP2;P2;SDS_P1;SDS_P2;PMS_P1;PMS_P2;Temp;Humidity;BMP_temperature;BMP_pressure;BME280_temperature;BME280_humidity;BME280_pressure;Samples;Min_cycle;Max_cycle;Signal;HPM_P1;HPM_P2
2021/06/16 00:02:01;;;;;;;5.15;4.65;;;24.10;60.50;;;;;;5097228;28;20175;-90
2021/06/16 00:04:27;;;;;;;4.75;4.35;;;23.80;61.00;;;;;;5096786;28;20175;-90
2021/06/16 00:06:55;;;;;;;6.50;4.40;;;23.70;61.70;;;;;;5115855;28;20183;-90
2021/06/16 00:09:21;;;;;;;6.50;4.65;;;23.70;61.60;;;;;;5115328;28;20207;-91
2021/06/16 00:11:46;;;;;;;6.93;6.22;;;23.80;61.20;;;;;;5095924;28;20186;-90
2021/06/16 00:14:12;;;;;;;6.45;5.72;;;23.80;61.50;;;;;;5098476;28;20222;-90
2021/06/16 00:16:38;;;;;;;6.00;5.50;;;23.80;61.20;;;;;;5096476;28;20202;-91
2021/06/16 00:19:04;;;;;;;5.78;5.35;;;24.00;60.90;;;;;;5097666;28;20260;-91
2021/06/16 00:21:32;;;;;;;5.22;4.82;;;23.80;61.10;;;;;;5096290;28;20567;-90
2021/06/16 00:23:58;;;;;;;5.40;4.60;;;23.80;61.30;;;;;;5096905;28;20178;-89
2021/06/16 00:26:23;;;;;;;4.97;4.43;;;23.80;60.90;;;;;;5098516;28;20270;-90
2021/06/16 00:28:49;;;;;;;5.40;4.90;;;23.80;61.20;;;;;;5095837;28;20182;-90
2021/06/16 00:31:15;;;;;;;4.90;4.60;;;23.30;63.00;;;;;;5095586;28;20666;-90
2021/06/16 00:33:41;;;;;;;7.47;5.20;;;23.20;63.50;;;;;;5096555;28;20206;-90
2021/06/16 00:36:06;;;;;;;5.22;4.88;;;23.10;63.60;;;;;;5096078;28;20589;-90
2021/06/16 00:38:32;;;;;;;5.88;4.93;;;23.20;63.00;;;;;;5097526;28;20183;-90
2021/06/16 00:40:58;;;;;;;5.47;4.97;;;23.20;63.10;;;;;;5095858;28;20661;-90
2021/06/16 00:43:24;;;;;;;5.40;4.95;;;23.30;62.60;;;;;;5095752;28;20175;-90
2021/06/16 00:45:49;;;;;;;6.13;5.63;;;23.10;63.70;;;;;;5095637;28;20199;-90
2021/06/16 00:48:15;;;;;;;6.50;5.90;;;22.90;64.70;;;;;;5097152;28;20171;-90
2021/06/16 00:50:41;;;;;;;5.60;5.18;;;22.40;66.40;;;;;;5098509;28;20727;-91
2021/06/16 00:53:08;;;;;;;5.75;5.28;;;22.20;67.70;;;;;;5097441;28;20776;-91
2021/06/16 00:55:38;;;;;;;5.90;5.40;;;22.20;67.30;;;;;;5096850;28;20259;-91
2021/06/16 00:58:13;;;;;;;5.63;5.20;;;22.40;66.70;;;;;;5095734;28;20187;-91
2021/06/16 01:00:58;;;;;;;7.05;5.28;;;22.60;65.50;;;;;;5097959;28;20174;-91
2021/06/16 01:03:32;;;;;;;6.40;5.40;;;22.80;64.70;;;;;;5095565;28;20167;-89
2021/06/16 01:06:04;;;;;;;11.35;5.53;;;22.80;64.60;;;;;;5094314;28;20202;-90
2021/06/16 01:08:35;;;;;;;5.50;5.10;;;22.90;64.30;;;;;;5095297;28;20232;-90
2021/06/16 01:11:06;;;;;;;5.85;5.40;;;22.50;65.90;;;;;;5094962;28;20163;-90
2021/06/16 01:13:37;;;;;;;5.65;5.15;;;22.30;66.80;;;;;;5095923;28;20617;-92
2021/06/16 01:16:20;;;;;;;6.32;5.30;;;22.40;65.80;;;;;;5095726;28;20191;-89
2021/06/16 01:18:51;;;;;;;8.60;6.05;;;22.70;64.90;;;;;;5096011;28;20300;-89
2021/06/16 01:21:17;;;;;;;5.28;4.78;;;22.60;64.80;;;;;;5093114;28;20182;-90
2021/06/16 01:24:07;;;;;;;6.13;5.13;;;22.50;65.20;;;;;;5094618;28;20175;-90
2021/06/16 01:26:38;;;;;;;5.57;5.05;;;22.50;64.80;;;;;;5094508;28;20239;-90
2021/06/16 01:29:15;;;;;;;4.88;4.47;;;22.70;64.40;;;;;;5094097;28;20632;-90
2021/06/16 01:31:42;;;;;;;5.13;4.65;;;22.80;63.60;;;;;;5094195;28;20254;-90
2021/06/16 01:34:12;;;;;;;5.53;5.03;;;22.80;63.20;;;;;;5094288;28;20299;-90
2021/06/16 01:36:42;;;;;;;5.90;5.32;;;22.90;63.00;;;;;;5094478;28;20339;-90
2021/06/16 01:39:09;;;;;;;5.28;4.85;;;22.90;62.50;;;;;;5076529;28;20872;-90
2021/06/16 01:41:36;;;;;;;5.63;5.13;;;23.00;62.30;;;;;;5094092;28;20175;-90
2021/06/16 01:44:03;;;;;;;5.53;5.13;;;23.00;62.40;;;;;;5094110;28;20187;-90
2021/06/16 01:46:30;;;;;;;5.70;5.20;;;23.00;62.60;;;;;;5094010;28;20691;-90
2021/06/16 01:48:56;;;;;;;5.40;4.90;;;23.00;62.30;;;;;;5094931;28;20596;-90
2021/06/16 01:51:25;;;;;;;7.70;5.40;;;22.50;64.50;;;;;;5093505;28;20182;-91
2021/06/16 01:53:52;;;;;;;5.45;4.95;;;22.40;64.70;;;;;;5093948;28;20203;-91
2021/06/16 01:56:19;;;;;;;5.05;4.65;;;22.40;64.50;;;;;;5094947;28;20195;-92
2021/06/16 01:58:47;;;;;;;5.28;4.88;;;22.50;64.10;;;;;;5097214;28;20683;-91
2021/06/16 02:01:14;;;;;;;5.70;5.30;;;22.60;63.70;;;;;;5097439;28;20168;-91
2021/06/16 02:03:41;;;;;;;5.35;4.95;;;22.60;63.60;;;;;;5097193;28;20167;-91
2021/06/16 02:06:07;;;;;;;4.78;4.47;;;22.30;64.10;;;;;;5096783;28;20261;-91
2021/06/16 02:08:36;;;;;;;5.90;5.38;;;22.10;65.10;;;;;;5096310;28;20187;-91
2021/06/16 02:11:03;;;;;;;6.22;5.18;;;22.20;65.10;;;;;;5094878;28;20250;-92
2021/06/16 02:13:45;;;;;;;5.70;5.30;;;22.30;65.00;;;;;;5105757;28;20234;-91
2021/06/16 02:16:35;;;;;;;5.78;5.18;;;22.30;64.50;;;;;;5108502;27;20210;-91
2021/06/16 02:19:07;;;;;;;6.80;5.00;;;22.20;64.60;;;;;;5086949;28;20211;-91
2021/06/16 02:21:33;;;;;;;5.20;4.80;;;22.30;64.60;;;;;;5096730;28;20160;-91
2021/06/16 02:23:58;;;;;;;5.15;4.78;;;22.40;63.80;;;;;;5097537;28;20209;-91
2021/06/16 02:26:24;;;;;;;5.30;4.90;;;22.40;63.80;;;;;;5095353;28;20487;-91
2021/06/16 02:28:51;;;;;;;5.03;4.72;;;22.50;63.60;;;;;;5096353;28;20185;-91
2021/06/16 02:31:16;;;;;;;5.70;5.20;;;22.50;63.80;;;;;;5096394;28;20185;-91
2021/06/16 02:33:42;;;;;;;5.15;4.75;;;22.40;64.00;;;;;;5096667;28;20238;-91
2021/06/16 02:36:10;;;;;;;4.85;4.55;;;22.30;64.00;;;;;;5097255;28;20194;-91
2021/06/16 02:38:36;;;;;;;5.20;4.70;;;22.40;64.00;;;;;;5092957;28;20183;-91
2021/06/16 02:41:06;;;;;;;5.63;4.63;;;22.30;64.20;;;;;;5093618;28;20177;-91
2021/06/16 02:43:33;;;;;;;6.22;5.50;;;22.40;64.00;;;;;;5095977;28;20562;-91
2021/06/16 02:46:00;;;;;;;5.30;4.60;;;22.30;64.00;;;;;;5097345;28;20198;-91
2021/06/16 02:48:25;;;;;;;5.05;4.75;;;22.30;64.30;;;;;;5096361;28;20190;-91
2021/06/16 02:50:54;;;;;;;5.15;4.78;;;22.20;64.30;;;;;;5095169;28;20197;-91
2021/06/16 02:53:22;;;;;;;5.35;4.85;;;22.00;65.40;;;;;;5096006;28;20214;-91
2021/06/16 02:55:51;;;;;;;5.72;5.32;;;21.80;65.80;;;;;;5093845;28;20195;-91
2021/06/16 02:58:18;;;;;;;5.80;5.28;;;21.70;66.50;;;;;;5098111;28;20167;-91
2021/06/16 03:00:46;;;;;;;5.80;5.30;;;21.80;66.00;;;;;;5095725;28;20181;-90
2021/06/16 03:03:12;;;;;;;5.60;5.20;;;21.70;66.30;;;;;;5091045;28;20190;-90
2021/06/16 03:05:39;;;;;;;6.15;4.70;;;21.70;66.50;;;;;;5090140;28;20641;-88
2021/06/16 03:08:05;;;;;;;5.90;5.22;;;21.80;66.00;;;;;;5092508;28;20551;-89
2021/06/16 03:10:33;;;;;;;5.30;4.82;;;21.90;65.60;;;;;;5091859;28;20187;-89
2021/06/16 03:13:03;;;;;;;4.90;4.50;;;21.90;65.00;;;;;;5089228;28;20414;-89
2021/06/16 03:15:30;;;;;;;5.82;4.45;;;22.00;65.00;;;;;;5091322;28;20809;-89
2021/06/16 03:17:57;;;;;;;6.32;4.53;;;22.00;65.00;;;;;;5090800;28;20191;-90
2021/06/16 03:20:26;;;;;;;6.43;4.80;;;22.00;64.80;;;;;;5091198;28;20174;-89
2021/06/16 03:22:55;;;;;;;6.00;5.20;;;22.10;64.70;;;;;;5088959;28;20193;-89
2021/06/16 03:25:21;;;;;;;4.88;4.53;;;22.00;64.40;;;;;;5092215;28;20210;-89
2021/06/16 03:27:49;;;;;;;4.93;4.53;;;22.00;64.50;;;;;;5095010;28;20206;-88
2021/06/16 03:30:16;;;;;;;5.28;4.88;;;22.00;64.50;;;;;;5093249;28;20194;-90
2021/06/16 03:32:43;;;;;;;5.75;4.88;;;21.90;65.60;;;;;;5093713;28;20209;-90
2021/06/16 03:35:09;;;;;;;5.22;4.68;;;21.70;65.30;;;;;;5091339;28;20218;-90
2021/06/16 03:37:36;;;;;;;5.63;5.03;;;21.70;65.50;;;;;;5094210;28;20190;-88
2021/06/16 03:40:05;;;;;;;6.40;5.72;;;21.60;65.60;;;;;;5093073;28;20182;-89
2021/06/16 03:42:33;;;;;;;4.80;4.50;;;21.40;66.40;;;;;;5092816;28;20863;-89
2021/06/16 03:45:03;;;;;;;4.90;4.57;;;21.30;66.60;;;;;;5096155;28;20210;-89
2021/06/16 03:47:31;;;;;;;5.68;5.28;;;21.30;66.70;;;;;;5095981;28;20289;-89
2021/06/16 03:49:58;;;;;;;5.78;5.28;;;21.20;66.60;;;;;;5095535;28;20179;-88
2021/06/16 03:52:25;;;;;;;4.80;4.40;;;21.40;66.30;;;;;;5095320;28;20206;-88
2021/06/16 03:54:53;;;;;;;4.47;4.18;;;21.50;66.10;;;;;;5098750;28;20203;-89
2021/06/16 03:57:20;;;;;;;5.25;4.80;;;21.70;65.80;;;;;;5098869;28;20178;-88
2021/06/16 03:59:47;;;;;;;5.70;5.03;;;21.70;65.30;;;;;;5098153;28;20263;-89
2021/06/16 04:02:16;;;;;;;5.78;5.18;;;21.60;65.40;;;;;;5099435;28;20220;-89
2021/06/16 04:04:42;;;;;;;4.95;4.55;;;21.60;65.40;;;;;;5097217;28;20178;-89
2021/06/16 04:07:09;;;;;;;5.28;4.68;;;21.60;65.70;;;;;;5098224;28;20658;-88
2021/06/16 04:09:35;;;;;;;8.05;4.90;;;21.70;65.50;;;;;;5096525;28;20192;-89
2021/06/16 04:12:01;;;;;;;4.65;4.35;;;21.70;65.70;;;;;;5097746;28;20190;-89
2021/06/16 04:14:26;;;;;;;5.80;5.30;;;21.70;65.40;;;;;;5098452;28;20218;-86
2021/06/16 04:16:56;;;;;;;5.35;4.95;;;21.80;65.40;;;;;;5108906;28;20178;-87
2021/06/16 04:19:22;;;;;;;5.28;4.78;;;21.70;65.60;;;;;;5108611;28;20197;-88
2021/06/16 04:21:48;;;;;;;5.53;5.05;;;21.60;65.70;;;;;;5114630;28;20174;-86
2021/06/16 04:24:13;;;;;;;5.82;5.20;;;21.60;65.90;;;;;;5095245;28;20183;-87
2021/06/16 04:26:39;;;;;;;6.13;5.57;;;21.70;65.70;;;;;;5099003;28;20230;-86
2021/06/16 04:29:08;;;;;;;8.63;5.70;;;21.80;65.50;;;;;;5100368;28;20179;-85
2021/06/16 04:31:35;;;;;;;11.00;5.60;;;21.80;65.50;;;;;;5098259;28;20186;-87
2021/06/16 04:34:01;;;;;;;15.52;6.95;;;21.50;66.70;;;;;;5096838;28;20202;-86
2021/06/16 04:36:26;;;;;;;6.00;5.38;;;21.60;66.80;;;;;;5095298;28;20263;-88
2021/06/16 04:38:52;;;;;;;6.68;5.68;;;21.70;66.40;;;;;;5096555;28;20269;-88
2021/06/16 04:41:18;;;;;;;9.77;6.05;;;21.80;65.80;;;;;;5097014;28;20698;-87
2021/06/16 04:43:44;;;;;;;10.63;5.20;;;22.00;65.60;;;;;;5097673;28;20183;-87
2021/06/16 04:46:10;;;;;;;10.25;5.72;;;22.10;65.40;;;;;;5095970;28;20206;-86
2021/06/16 04:48:36;;;;;;;7.20;6.05;;;22.10;65.70;;;;;;5061634;28;20686;-87
2021/06/16 04:51:01;;;;;;;5.95;5.45;;;22.10;66.10;;;;;;5096124;28;20225;-89
2021/06/16 04:53:27;;;;;;;7.47;5.80;;;22.00;66.30;;;;;;5115905;28;20670;-89
2021/06/16 04:55:53;;;;;;;5.75;5.25;;;22.00;66.90;;;;;;5099473;28;20264;-88
2021/06/16 04:58:19;;;;;;;7.20;5.82;;;22.00;67.30;;;;;;5097269;28;20181;-90
2021/06/16 05:00:44;;;;;;;6.50;5.82;;;21.90;67.70;;;;;;5099226;28;20174;-88
2021/06/16 05:03:10;;;;;;;8.65;6.00;;;21.80;67.70;;;;;;5116834;28;20186;-88
2021/06/16 05:05:36;;;;;;;8.20;5.75;;;21.70;68.70;;;;;;5115428;28;20562;-88
2021/06/16 05:08:02;;;;;;;7.43;5.80;;;21.70;68.10;;;;;;5118057;28;20185;-88
2021/06/16 05:10:27;;;;;;;6.20;5.70;;;21.80;66.90;;;;;;5120200;28;20247;-89
2021/06/16 05:12:53;;;;;;;5.93;5.43;;;21.90;67.10;;;;;;5117329;28;20208;-88
2021/06/16 05:15:19;;;;;;;6.18;5.63;;;22.00;67.10;;;;;;5099801;28;20282;-89
2021/06/16 05:17:45;;;;;;;6.30;5.65;;;22.10;68.70;;;;;;5100197;28;20182;-87
2021/06/16 05:20:12;;;;;;;11.70;6.30;;;22.10;66.00;;;;;;5097829;28;20194;-90
2021/06/16 05:22:39;;;;;;;6.20;5.70;;;22.20;66.90;;;;;;5099593;28;20182;-90
2021/06/16 05:25:07;;;;;;;6.72;6.07;;;22.30;67.00;;;;;;5099995;28;20771;-88
2021/06/16 05:27:34;;;;;;;6.63;6.13;;;22.40;66.10;;;;;;5102304;28;20185;-88
2021/06/16 05:30:01;;;;;;;15.93;7.78;;;22.50;65.60;;;;;;5093207;28;20205;-88
2021/06/16 05:32:27;;;;;;;7.72;6.68;;;22.30;64.50;;;;;;5111796;28;20181;-90
2021/06/16 05:34:52;;;;;;;23.77;9.82;;;22.30;64.60;;;;;;5109426;28;20195;-90
2021/06/16 05:37:18;;;;;;;11.07;6.72;;;22.30;63.60;;;;;;5113208;28;20178;-90
2021/06/16 05:39:44;;;;;;;6.95;6.18;;;22.20;64.80;;;;;;5112965;28;20201;-90
2021/06/16 05:42:10;;;;;;;8.45;6.35;;;22.10;64.40;;;;;;5105234;28;20830;-89
2021/06/16 05:44:36;;;;;;;6.57;6.07;;;22.00;64.90;;;;;;5088991;28;20193;-90
2021/06/16 05:47:03;;;;;;;10.05;6.47;;;21.80;65.40;;;;;;5091466;28;20536;-88
2021/06/16 05:49:29;;;;;;;6.93;6.38;;;21.90;65.20;;;;;;5092731;28;20182;-88
2021/06/16 05:51:55;;;;;;;6.03;5.57;;;22.00;64.50;;;;;;5093416;28;20996;-88
2021/06/16 05:54:21;;;;;;;6.30;5.72;;;22.10;63.20;;;;;;5094382;28;20214;-87
2021/06/16 05:56:47;;;;;;;6.03;5.45;;;22.20;63.00;;;;;;5093757;28;20194;-88
2021/06/16 05:59:12;;;;;;;6.53;5.47;;;22.20;61.20;;;;;;5095802;28;20163;-88
2021/06/16 06:01:38;;;;;;;6.20;5.63;;;22.30;61.90;;;;;;5097725;28;20708;-88
2021/06/16 06:04:06;;;;;;;5.90;5.32;;;22.40;62.20;;;;;;5094748;28;20197;-88
2021/06/16 06:06:33;;;;;;;6.18;5.55;;;22.60;60.70;;;;;;5101006;28;20198;-87
2021/06/16 06:08:59;;;;;;;6.28;5.78;;;22.80;60.00;;;;;;5098375;28;20539;-88
2021/06/16 06:11:24;;;;;;;7.07;5.72;;;22.80;59.70;;;;;;5097798;28;20655;-88
2021/06/16 06:13:51;;;;;;;6.20;5.60;;;22.90;60.00;;;;;;5098327;28;20194;-88
2021/06/16 06:16:16;;;;;;;5.95;5.45;;;23.00;59.80;;;;;;5098967;28;20262;-89
2021/06/16 06:18:43;;;;;;;5.55;5.05;;;23.00;59.30;;;;;;5099583;28;20190;-91
2021/06/16 06:21:09;;;;;;;6.13;5.63;;;23.00;59.80;;;;;;5099751;28;20228;-90
2021/06/16 06:23:35;;;;;;;7.00;5.43;;;23.00;59.10;;;;;;5100676;28;20192;-90
2021/06/16 06:26:01;;;;;;;11.75;6.40;;;23.10;59.70;;;;;;5101035;28;20222;-91
2021/06/16 06:28:27;;;;;;;6.38;5.78;;;23.20;60.10;;;;;;5098699;28;20201;-90
2021/06/16 06:30:53;;;;;;;6.60;5.90;;;23.20;58.90;;;;;;5099758;28;20706;-90
2021/06/16 06:33:19;;;;;;;6.70;6.10;;;23.20;59.00;;;;;;5099571;28;20198;-89
2021/06/16 06:35:44;;;;;;;6.85;6.15;;;23.20;58.70;;;;;;5098459;28;20194;-88
2021/06/16 06:38:12;;;;;;;6.85;5.50;;;23.30;59.00;;;;;;5098525;28;20190;-90
2021/06/16 06:40:37;;;;;;;7.15;5.55;;;23.30;58.70;;;;;;5097076;28;20178;-88
2021/06/16 06:43:03;;;;;;;7.15;5.70;;;23.40;59.10;;;;;;5099860;28;20198;-89
2021/06/16 06:45:29;;;;;;;8.80;5.55;;;23.40;58.50;;;;;;5096474;28;20218;-88
2021/06/16 06:47:55;;;;;;;6.65;6.05;;;23.40;58.60;;;;;;5100205;28;20194;-90
2021/06/16 06:50:20;;;;;;;6.88;6.28;;;23.50;59.30;;;;;;5088909;28;20198;-89
2021/06/16 06:52:48;;;;;;;7.50;5.97;;;23.60;59.60;;;;;;5105223;28;20273;-90
2021/06/16 06:55:14;;;;;;;7.07;5.70;;;23.60;59.70;;;;;;5098244;28;20195;-91
2021/06/16 06:57:40;;;;;;;8.40;6.50;;;23.70;58.50;;;;;;5108140;28;20197;-91
2021/06/16 07:00:08;;;;;;;6.47;5.88;;;23.80;58.20;;;;;;5094621;28;20218;-90
2021/06/16 07:02:34;;;;;;;9.98;6.13;;;23.90;57.40;;;;;;5109558;28;20208;-89
2021/06/16 07:04:59;;;;;;;8.55;5.50;;;23.90;57.80;;;;;;5104969;28;20211;-89
2021/06/16 07:07:25;;;;;;;6.28;5.32;;;24.00;58.50;;;;;;5112886;28;20215;-89
2021/06/16 07:09:51;;;;;;;5.80;5.28;;;24.10;58.00;;;;;;5115475;28;20191;-90
2021/06/16 07:12:17;;;;;;;6.20;5.40;;;24.20;54.80;;;;;;5105293;28;20230;-90
2021/06/16 07:14:44;;;;;;;6.50;5.85;;;24.20;56.70;;;;;;5104560;28;20212;-91
2021/06/16 07:17:10;;;;;;;6.57;5.68;;;24.30;56.80;;;;;;5108452;28;20194;-90
2021/06/16 07:19:36;;;;;;;6.20;5.60;;;24.30;56.90;;;;;;5110611;28;20187;-90
2021/06/16 07:22:02;;;;;;;5.85;5.38;;;24.30;55.50;;;;;;5103807;28;20764;-90
2021/06/16 07:24:28;;;;;;;6.13;5.53;;;24.40;55.90;;;;;;5102205;28;20250;-89
2021/06/16 07:26:55;;;;;;;5.80;5.20;;;24.40;55.40;;;;;;5107346;28;20217;-89
2021/06/16 07:29:21;;;;;;;9.00;5.40;;;24.60;55.00;;;;;;5105330;28;20218;-89
2021/06/16 07:31:47;;;;;;;5.93;5.30;;;24.50;54.50;;;;;;5107314;28;20190;-89
2021/06/16 07:34:13;;;;;;;8.02;5.95;;;24.50;54.60;;;;;;5112646;28;20214;-89
2021/06/16 07:36:39;;;;;;;6.38;5.45;;;24.50;55.70;;;;;;5104445;28;20273;-89
2021/06/16 07:39:05;;;;;;;5.68;5.28;;;24.60;54.50;;;;;;5111229;28;20291;-88
2021/06/16 07:41:31;;;;;;;7.07;5.35;;;24.70;55.10;;;;;;5108144;28;20183;-88
2021/06/16 07:43:56;;;;;;;7.18;5.32;;;24.80;54.70;;;;;;5105131;28;20266;-90
2021/06/16 07:46:23;;;;;;;7.65;5.43;;;24.90;53.70;;;;;;5109874;28;20209;-88
2021/06/16 07:48:51;;;;;;;6.70;5.97;;;24.90;54.20;;;;;;5097683;28;20187;-89
2021/06/16 07:51:19;;;;;;;5.78;5.18;;;25.00;53.40;;;;;;5098492;28;20257;-88
2021/06/16 07:53:44;;;;;;;6.13;5.07;;;25.10;53.30;;;;;;5102384;28;20689;-88
2021/06/16 07:56:10;;;;;;;8.93;5.47;;;25.10;54.20;;;;;;5113078;28;20203;-88
2021/06/16 07:58:36;;;;;;;6.10;5.53;;;25.10;55.00;;;;;;5108361;28;20183;-88
2021/06/16 08:01:02;;;;;;;6.50;5.07;;;25.10;52.30;;;;;;5096217;28;20298;-89
2021/06/16 08:03:28;;;;;;;5.78;5.30;;;25.30;51.90;;;;;;5110311;28;20206;-88
2021/06/16 08:05:54;;;;;;;7.78;5.30;;;25.40;51.30;;;;;;5120607;28;20251;-87
2021/06/16 08:08:21;;;;;;;9.05;5.60;;;25.60;50.90;;;;;;5109502;28;20186;-90
2021/06/16 08:10:46;;;;;;;5.60;5.15;;;25.70;50.40;;;;;;5109098;28;20678;-88
2021/06/16 08:13:12;;;;;;;6.50;5.95;;;25.90;50.80;;;;;;5114992;28;20243;-88
2021/06/16 08:15:38;;;;;;;6.22;5.10;;;25.90;50.30;;;;;;5110704;28;20206;-89
2021/06/16 08:18:04;;;;;;;7.78;5.53;;;25.90;50.20;;;;;;5113661;28;20178;-87
2021/06/16 08:20:30;;;;;;;6.50;5.93;;;26.00;51.30;;;;;;5115156;28;20193;-88
2021/06/16 08:22:55;;;;;;;6.22;5.60;;;26.00;51.90;;;;;;5118663;28;20203;-89
2021/06/16 08:25:21;;;;;;;6.97;5.30;;;26.00;52.10;;;;;;5118292;28;20244;-88
2021/06/16 08:27:47;;;;;;;7.53;5.30;;;26.10;51.60;;;;;;5119681;28;20190;-89
2021/06/16 08:30:14;;;;;;;6.75;5.82;;;26.20;51.50;;;;;;5119491;28;20602;-89
2021/06/16 08:32:41;;;;;;;8.93;5.53;;;26.40;50.10;;;;;;5112557;28;20203;-89
2021/06/16 08:35:08;;;;;;;6.22;5.63;;;26.50;51.50;;;;;;5115903;28;20228;-89
2021/06/16 08:37:34;;;;;;;8.95;5.63;;;26.60;50.20;;;;;;5112904;28;20179;-88
2021/06/16 08:40:00;;;;;;;8.18;5.43;;;26.70;51.30;;;;;;5100880;28;20187;-88
2021/06/16 08:42:26;;;;;;;9.13;6.25;;;26.80;50.80;;;;;;5109476;28;20223;-88
2021/06/16 08:44:54;;;;;;;6.93;6.22;;;26.90;51.10;;;;;;5112772;28;20205;-88
2021/06/16 08:47:21;;;;;;;6.18;5.60;;;27.10;50.40;;;;;;5117581;28;20178;-89
2021/06/16 08:49:47;;;;;;;7.63;6.82;;;27.20;50.30;;;;;;5108506;28;20206;-88
2021/06/16 08:52:13;;;;;;;6.85;6.20;;;27.40;50.90;;;;;;5110426;28;20720;-88
2021/06/16 08:54:39;;;;;;;7.43;6.65;;;27.40;51.50;;;;;;5108593;28;20214;-87
2021/06/16 08:57:05;;;;;;;6.72;6.07;;;27.50;51.90;;;;;;5117533;28;20201;-86
2021/06/16 08:59:31;;;;;;;7.75;6.50;;;27.60;52.40;;;;;;5120601;28;20275;-87
2021/06/16 09:01:57;;;;;;;7.28;6.57;;;27.50;51.50;;;;;;5114309;27;20554;-88
2021/06/16 09:04:42;;;;;;;6.80;6.10;;;27.60;51.60;;;;;;5113271;28;20188;-88
2021/06/16 09:07:13;;;;;;;7.68;6.72;;;27.80;50.90;;;;;;5104591;28;20670;-87
2021/06/16 09:09:38;;;;;;;7.15;6.40;;;27.90;50.30;;;;;;5110959;28;20190;-87
2021/06/16 09:12:06;;;;;;;8.35;6.55;;;27.80;51.50;;;;;;5105175;28;20195;-87
2021/06/16 09:14:32;;;;;;;10.68;7.18;;;28.00;50.20;;;;;;5102346;28;20680;-87
2021/06/16 09:17:03;;;;;;;7.13;6.35;;;28.20;50.20;;;;;;5106161;28;20190;-87
2021/06/16 09:19:36;;;;;;;11.27;6.93;;;28.30;49.30;;;;;;5114336;28;20181;-87
2021/06/16 09:22:06;;;;;;;9.20;6.72;;;28.50;49.00;;;;;;5114570;28;20508;-88
2021/06/16 09:24:53;;;;;;;12.93;6.93;;;28.60;48.70;;;;;;5116547;28;20186;-89
2021/06/16 09:27:41;;;;;;;7.60;6.75;;;28.80;48.50;;;;;;5117771;28;20186;-87
2021/06/16 09:30:26;;;;;;;8.65;7.55;;;28.70;49.40;;;;;;5115206;28;20314;-88
2021/06/16 09:32:58;;;;;;;10.70;7.30;;;29.00;48.50;;;;;;5116757;28;20212;-87
2021/06/16 09:35:28;;;;;;;10.82;6.80;;;29.10;48.30;;;;;;5116010;28;20321;-88
2021/06/16 09:37:55;;;;;;;9.40;7.45;;;29.10;49.70;;;;;;5121202;28;20269;-88
2021/06/16 09:40:33;;;;;;;19.27;7.63;;;29.20;48.70;;;;;;5110644;28;20178;-87
2021/06/16 09:43:14;;;;;;;12.70;6.40;;;29.50;47.80;;;;;;5107419;28;20213;-87
2021/06/16 09:45:44;;;;;;;11.18;7.05;;;29.70;47.80;;;;;;5109138;28;20230;-87
2021/06/16 09:48:29;;;;;;;8.32;7.53;;;29.80;45.40;;;;;;5117971;28;20182;-88
2021/06/16 09:51:22;;;;;;;7.88;7.05;;;29.90;44.80;;;;;;5112720;28;20189;-89
2021/06/16 09:53:52;;;;;;;10.88;6.97;;;30.00;45.20;;;;;;5109201;28;20210;-88
2021/06/16 09:56:18;;;;;;;12.07;7.25;;;30.10;45.40;;;;;;5119734;28;20232;-88
2021/06/16 09:58:44;;;;;;;8.95;7.13;;;30.30;46.80;;;;;;5113756;28;20186;-89
2021/06/16 10:01:10;;;;;;;9.15;7.05;;;30.40;45.00;;;;;;5121318;28;20195;-88
2021/06/16 10:03:36;;;;;;;7.50;6.80;;;30.60;44.60;;;;;;5119371;28;20194;-89
2021/06/16 10:06:13;;;;;;;7.63;6.85;;;30.60;45.10;;;;;;5114114;28;20700;-89
2021/06/16 10:08:43;;;;;;;8.65;6.93;;;30.70;43.90;;;;;;5106067;28;20674;-89
2021/06/16 10:11:12;;;;;;;11.82;7.03;;;30.80;43.70;;;;;;5105904;28;20770;-90
2021/06/16 10:13:41;;;;;;;7.60;6.93;;;30.90;41.80;;;;;;5105111;28;20198;-88
2021/06/16 10:16:07;;;;;;;13.05;7.03;;;30.90;42.10;;;;;;5106170;28;20207;-90
2021/06/16 10:18:40;;;;;;;9.73;7.10;;;31.10;43.40;;;;;;5115474;28;20190;-89
2021/06/16 10:21:07;;;;;;;8.18;6.93;;;31.00;43.00;;;;;;5123562;28;20174;-91
2021/06/16 10:23:33;;;;;;;8.10;6.90;;;31.20;44.70;;;;;;5117131;28;20274;-90
2021/06/16 10:26:04;;;;;;;8.68;7.80;;;31.40;43.60;;;;;;5116604;28;20240;-90
2021/06/16 10:28:42;;;;;;;9.98;8.07;;;31.60;42.50;;;;;;5112734;28;20182;-90
2021/06/16 10:31:09;;;;;;;9.68;7.40;;;31.60;41.30;;;;;;5118084;28;20182;-90
2021/06/16 10:33:39;;;;;;;7.97;7.22;;;31.80;42.20;;;;;;5115132;27;20223;-89
2021/06/16 10:36:24;;;;;;;8.60;7.50;;;32.00;43.00;;;;;;5111018;28;20201;-88
2021/06/16 10:38:59;;;;;;;8.50;7.70;;;32.20;42.80;;;;;;5109156;28;20182;-90
2021/06/16 10:41:37;;;;;;;10.13;7.95;;;32.30;42.40;;;;;;5110836;28;20182;-91
2021/06/16 10:44:19;;;;;;;9.63;7.68;;;32.50;42.60;;;;;;5108390;28;20192;-90
2021/06/16 10:46:50;;;;;;;13.00;8.38;;;32.40;42.30;;;;;;5111137;28;20209;-90
2021/06/16 10:49:36;;;;;;;9.05;8.05;;;32.60;41.30;;;;;;5103983;28;20633;-91
2021/06/16 10:52:03;;;;;;;9.18;8.30;;;32.80;42.20;;;;;;5100443;28;20198;-89
2021/06/16 10:54:31;;;;;;;9.07;8.00;;;32.90;40.40;;;;;;5105429;28;20562;-92
2021/06/16 10:57:13;;;;;;;12.82;8.60;;;33.10;40.00;;;;;;5083977;28;20344;-88
2021/06/16 11:23:15;;;;;;;8.82;7.95;;;34.40;36.80;;;;;;5021663;28;20272;-92
2021/06/16 11:25:43;;;;;;;11.90;7.68;;;34.20;36.10;;;;;;5020890;28;20276;-93
2021/06/16 11:29:17;;;;;;;8.60;7.80;;;34.10;37.80;;;;;;5008505;28;20197;-92
2021/06/16 11:32:16;;;;;;;8.25;7.45;;;34.50;37.00;;;;;;4931185;28;20746;-92
2021/06/16 11:35:32;;;;;;;8.27;7.60;;;34.70;35.90;;;;;;4968901;28;20227;-94
2021/06/16 11:39:14;;;;;;;8.75;8.05;;;35.10;35.40;;;;;;4966830;28;20210;-93
2021/06/16 12:28:58;;;;;;;5.97;5.47;;;36.30;28.80;;;;;;5066073;28;20219;-90
2021/06/16 12:31:32;;;;;;;5.78;5.30;;;35.90;28.30;;;;;;5053213;28;20194;-91
2021/06/16 12:36:27;;;;;;;5.68;5.38;;;36.60;26.90;;;;;;5048862;28;20187;-90
2021/06/16 12:39:06;;;;;;;7.18;6.10;;;37.20;27.30;;;;;;5078812;28;20327;-92
2021/06/16 12:41:34;;;;;;;6.22;5.72;;;37.40;26.80;;;;;;5055775;28;20180;-91
2021/06/16 12:44:27;;;;;;;6.47;5.70;;;37.40;28.30;;;;;;5072632;28;20215;-91
2021/06/16 12:47:13;;;;;;;8.25;5.63;;;37.40;25.60;;;;;;5038873;28;20211;-90
2021/06/16 12:49:42;;;;;;;6.68;5.85;;;37.40;25.90;;;;;;5058902;28;20174;-91
2021/06/16 12:52:10;;;;;;;5.85;5.30;;;37.70;26.00;;;;;;5072890;28;20214;-91
2021/06/16 12:54:42;;;;;;;9.15;5.65;;;37.30;26.00;;;;;;5034732;28;20743;-92
2021/06/16 12:57:08;;;;;;;6.30;5.88;;;37.60;26.00;;;;;;5050754;28;20195;-91
2021/06/16 12:59:38;;;;;;;5.60;5.20;;;37.80;25.70;;;;;;5076297;28;20243;-90
2021/06/16 13:02:05;;;;;;;5.95;5.50;;;38.10;25.60;;;;;;5066202;28;20677;-91
2021/06/16 13:04:50;;;;;;;6.00;5.60;;;38.50;25.40;;;;;;5057105;28;20183;-91
2021/06/16 13:07:16;;;;;;;6.03;5.63;;;38.80;24.60;;;;;;5042057;28;20722;-91
2021/06/16 13:09:58;;;;;;;6.20;5.70;;;38.70;25.00;;;;;;5067323;28;20190;-92
2021/06/16 13:12:23;;;;;;;6.18;5.70;;;38.80;24.20;;;;;;5053384;28;20207;-91
2021/06/16 13:15:01;;;;;;;6.25;5.70;;;39.00;25.00;;;;;;5052645;28;20212;-91
2021/06/16 13:17:28;;;;;;;6.32;5.93;;;39.10;24.40;;;;;;5080881;28;20191;-92
2021/06/16 13:20:01;;;;;;;8.70;5.60;;;38.50;25.00;;;;;;5059737;28;20750;-91
2021/06/16 13:22:38;;;;;;;5.70;5.30;;;38.80;24.20;;;;;;5061859;28;20195;-91
2021/06/16 13:25:05;;;;;;;6.30;5.72;;;38.90;23.60;;;;;;5053273;28;20191;-91
2021/06/16 13:27:49;;;;;;;6.38;5.88;;;38.90;24.40;;;;;;5059605;28;20192;-90
2021/06/16 13:30:31;;;;;;;5.65;5.25;;;39.20;23.90;;;;;;5073884;28;20179;-92
2021/06/16 13:32:58;;;;;;;5.70;5.30;;;39.10;23.80;;;;;;5059879;28;20541;-92
2021/06/16 13:35:26;;;;;;;9.80;5.70;;;39.30;24.40;;;;;;5059802;28;20183;-92
2021/06/16 13:37:53;;;;;;;5.93;5.47;;;39.50;23.30;;;;;;5054197;28;20664;-91
2021/06/16 13:40:19;;;;;;;6.35;5.90;;;39.70;22.50;;;;;;5073965;28;20705;-92
2021/06/16 13:42:57;;;;;;;7.28;5.03;;;39.80;23.10;;;;;;5064194;28;20211;-92
2021/06/16 13:45:29;;;;;;;5.22;4.82;;;39.10;23.20;;;;;;5055289;28;20185;-92
2021/06/16 13:47:55;;;;;;;5.45;5.05;;;38.50;23.70;;;;;;5073124;28;20190;-91
2021/06/16 13:50:21;;;;;;;5.60;5.20;;;39.10;22.70;;;;;;5049848;28;20190;-92
2021/06/16 13:52:49;;;;;;;5.32;5.03;;;39.60;22.10;;;;;;5063258;28;20203;-91
2021/06/16 13:55:15;;;;;;;5.75;5.25;;;39.80;22.20;;;;;;5048484;28;20690;-93
2021/06/16 13:57:41;;;;;;;7.88;5.50;;;39.80;21.70;;;;;;5049826;28;20188;-91
2021/06/16 14:00:09;;;;;;;5.97;5.57;;;40.20;22.80;;;;;;5068848;28;20184;-92
2021/06/16 14:02:35;;;;;;;5.80;5.32;;;40.10;22.30;;;;;;5064237;28;20207;-91
2021/06/16 14:05:05;;;;;;;5.75;5.45;;;40.20;22.10;;;;;;5048406;28;20188;-91
2021/06/16 14:07:31;;;;;;;6.22;5.72;;;40.40;22.20;;;;;;5044990;28;20180;-91
2021/06/16 14:09:57;;;;;;;6.05;5.75;;;40.40;22.90;;;;;;5069895;28;20282;-92